Terminal Aerodrome Forecast
Issued by NWS

Home | Current Version | Previous Version | Text Only | Print | Product List | Glossary On
Versions: 1 2 3 4 5 6 7 8 9 10 11 12 13
000
FTUS45 KRIW 191140
TAFCOD
TAF
KCOD 191140Z 1912/2012 36011KT P6SM FEW110 BKN250 WS020/25030KT
     FM191900 27015G25KT P6SM BKN110 WS015/27045KT
     FM192300 24015KT P6SM BKN080 WS015/25035KT
     FM200200 36010KT P6SM BKN080
     FM200400 01010KT P6SM VCSH BKN035
      AMD LTD TO CLD VIS AND WIND=

USA.gov is the U.S. government's official web portal to all federal, state and local government web resources and services.